sensor_id;sensor_type;location;lat;lon;timestamp;P1;durP1;ratioP1;P2;durP2;ratioP2
11230;SDS011;5672;51.060;3.734;2023-05-03T13:29:38;7.80;;;7.03;;
11230;SDS011;5672;51.060;3.734;2023-05-03T13:32:04;10.40;;;8.37;;
11230;SDS011;5672;51.060;3.734;2023-05-03T13:34:30;11.20;;;7.80;;
11230;SDS011;5672;51.060;3.734;2023-05-03T13:36:56;14.03;;;8.20;;
11230;SDS011;5672;51.060;3.734;2023-05-03T13:39:22;9.70;;;7.50;;
11230;SDS011;5672;51.060;3.734;2023-05-03T13:41:49;11.20;;;7.47;;
11230;SDS011;5672;51.060;3.734;2023-05-03T13:44:15;18.37;;;15.30;;
11230;SDS011;5672;51.060;3.734;2023-05-03T13:46:41;18.40;;;12.73;;
11230;SDS011;5672;51.060;3.734;2023-05-03T13:49:07;21.00;;;13.20;;
11230;SDS011;5672;51.060;3.734;2023-05-03T13:51:33;10.53;;;8.50;;
11230;SDS011;5672;51.060;3.734;2023-05-03T13:54:00;8.43;;;7.40;;
11230;SDS011;5672;51.060;3.734;2023-05-03T13:56:27;8.82;;;6.78;;
11230;SDS011;5672;51.060;3.734;2023-05-03T13:58:53;8.90;;;5.93;;
11230;SDS011;5672;51.060;3.734;2023-05-03T14:01:20;8.43;;;5.67;;
11230;SDS011;5672;51.060;3.734;2023-05-03T14:03:46;8.20;;;5.37;;
11230;SDS011;5672;51.060;3.734;2023-05-03T14:06:14;8.93;;;5.73;;
11230;SDS011;5672;51.060;3.734;2023-05-03T14:08:40;4.77;;;4.37;;
11230;SDS011;5672;51.060;3.734;2023-05-03T14:11:10;8.20;;;4.70;;
11230;SDS011;5672;51.060;3.734;2023-05-03T14:13:37;6.68;;;5.80;;
11230;SDS011;5672;51.060;3.734;2023-05-03T14:16:03;7.03;;;5.05;;
11230;SDS011;5672;51.060;3.734;2023-05-03T14:18:29;7.00;;;6.30;;
11230;SDS011;5672;51.060;3.734;2023-05-03T14:20:55;7.47;;;6.60;;
11230;SDS011;5672;51.060;3.734;2023-05-03T14:23:21;8.70;;;6.65;;
11230;SDS011;5672;51.060;3.734;2023-05-03T14:25:48;9.07;;;6.55;;
11230;SDS011;5672;51.060;3.734;2023-05-03T14:28:14;10.43;;;7.07;;
11230;SDS011;5672;51.060;3.734;2023-05-03T14:30:40;8.20;;;6.77;;
11230;SDS011;5672;51.060;3.734;2023-05-03T14:33:06;8.70;;;7.03;;
11230;SDS011;5672;51.060;3.734;2023-05-03T14:35:34;9.53;;;6.40;;
11230;SDS011;5672;51.060;3.734;2023-05-03T14:38:00;10.37;;;7.60;;
11230;SDS011;5672;51.060;3.734;2023-05-03T14:40:26;8.20;;;7.20;;
11230;SDS011;5672;51.060;3.734;2023-05-03T14:42:52;14.80;;;9.90;;
11230;SDS011;5672;51.060;3.734;2023-05-03T14:45:18;11.13;;;8.33;;
11230;SDS011;5672;51.060;3.734;2023-05-03T14:47:44;11.73;;;8.40;;
11230;SDS011;5672;51.060;3.734;2023-05-03T14:50:10;9.57;;;7.63;;
11230;SDS011;5672;51.060;3.734;2023-05-03T14:52:36;12.07;;;7.50;;
11230;SDS011;5672;51.060;3.734;2023-05-03T14:55:05;12.70;;;8.03;;
11230;SDS011;5672;51.060;3.734;2023-05-03T14:57:32;9.73;;;8.80;;
11230;SDS011;5672;51.060;3.734;2023-05-03T15:00:01;11.17;;;8.67;;
11230;SDS011;5672;51.060;3.734;2023-05-03T15:02:28;14.17;;;7.60;;
11230;SDS011;5672;51.060;3.734;2023-05-03T15:04:54;10.40;;;7.37;;
11230;SDS011;5672;51.060;3.734;2023-05-03T15:07:20;11.73;;;8.07;;
11230;SDS011;5672;51.060;3.734;2023-05-03T15:09:46;11.13;;;7.70;;
11230;SDS011;5672;51.060;3.734;2023-05-03T15:12:12;10.73;;;7.40;;
11230;SDS011;5672;51.060;3.734;2023-05-03T15:14:38;11.53;;;6.93;;
11230;SDS011;5672;51.060;3.734;2023-05-03T15:17:04;10.67;;;6.73;;
11230;SDS011;5672;51.060;3.734;2023-05-03T15:19:30;9.47;;;7.00;;
11230;SDS011;5672;51.060;3.734;2023-05-03T15:21:57;8.70;;;7.17;;
11230;SDS011;5672;51.060;3.734;2023-05-03T15:24:23;9.57;;;7.93;;
11230;SDS011;5672;51.060;3.734;2023-05-03T15:26:49;12.30;;;8.50;;
11230;SDS011;5672;51.060;3.734;2023-05-03T15:29:15;13.30;;;8.87;;
11230;SDS011;5672;51.060;3.734;2023-05-03T15:31:41;12.77;;;8.50;;
11230;SDS011;5672;51.060;3.734;2023-05-03T15:34:07;12.73;;;9.17;;
11230;SDS011;5672;51.060;3.734;2023-05-03T15:36:36;8.50;;;7.67;;
11230;SDS011;5672;51.060;3.734;2023-05-03T15:39:02;8.67;;;7.23;;
11230;SDS011;5672;51.060;3.734;2023-05-03T15:41:28;11.60;;;7.07;;
11230;SDS011;5672;51.060;3.734;2023-05-03T15:43:54;12.20;;;8.07;;
11230;SDS011;5672;51.060;3.734;2023-05-03T15:46:21;11.03;;;8.27;;
11230;SDS011;5672;51.060;3.734;2023-05-03T15:48:47;14.33;;;8.43;;
11230;SDS011;5672;51.060;3.734;2023-05-03T15:51:13;10.50;;;7.83;;
11230;SDS011;5672;51.060;3.734;2023-05-03T15:53:39;9.83;;;7.10;;
11230;SDS011;5672;51.060;3.734;2023-05-03T15:56:05;10.70;;;7.90;;
11230;SDS011;5672;51.060;3.734;2023-05-03T15:58:33;14.97;;;8.70;;
11230;SDS011;5672;51.060;3.734;2023-05-03T16:00:59;9.57;;;7.57;;
11230;SDS011;5672;51.060;3.734;2023-05-03T16:03:25;9.80;;;7.80;;
11230;SDS011;5672;51.060;3.734;2023-05-03T16:05:53;13.90;;;8.43;;
11230;SDS011;5672;51.060;3.734;2023-05-03T16:08:20;12.70;;;8.90;;
11230;SDS011;5672;51.060;3.734;2023-05-03T16:10:46;11.07;;;8.13;;
11230;SDS011;5672;51.060;3.734;2023-05-03T16:13:12;14.70;;;7.30;;
11230;SDS011;5672;51.060;3.734;2023-05-03T16:15:38;12.23;;;7.23;;
11230;SDS011;5672;51.060;3.734;2023-05-03T16:18:04;15.43;;;8.57;;
11230;SDS011;5672;51.060;3.734;2023-05-03T16:20:30;9.27;;;8.10;;
11230;SDS011;5672;51.060;3.734;2023-05-03T16:22:57;8.83;;;7.50;;
11230;SDS011;5672;51.060;3.734;2023-05-03T16:25:23;17.30;;;13.10;;
11230;SDS011;5672;51.060;3.734;2023-05-03T16:27:49;14.33;;;7.57;;
11230;SDS011;5672;51.060;3.734;2023-05-03T16:30:15;16.87;;;13.00;;
11230;SDS011;5672;51.060;3.734;2023-05-03T16:32:41;14.67;;;8.67;;
11230;SDS011;5672;51.060;3.734;2023-05-03T16:35:07;9.57;;;7.37;;
11230;SDS011;5672;51.060;3.734;2023-05-03T16:37:34;10.80;;;6.67;;
11230;SDS011;5672;51.060;3.734;2023-05-03T16:40:01;10.23;;;8.30;;
11230;SDS011;5672;51.060;3.734;2023-05-03T16:42:36;16.40;;;10.57;;
11230;SDS011;5672;51.060;3.734;2023-05-03T16:45:02;11.83;;;8.87;;
11230;SDS011;5672;51.060;3.734;2023-05-03T16:47:29;10.27;;;8.53;;
11230;SDS011;5672;51.060;3.734;2023-05-03T16:49:57;12.27;;;9.23;;
11230;SDS011;5672;51.060;3.734;2023-05-03T16:52:23;12.03;;;7.47;;
11230;SDS011;5672;51.060;3.734;2023-05-03T16:54:51;11.30;;;8.33;;
11230;SDS011;5672;51.060;3.734;2023-05-03T16:57:17;9.50;;;7.83;;
11230;SDS011;5672;51.060;3.734;2023-05-03T16:59:43;10.33;;;8.30;;
11230;SDS011;5672;51.060;3.734;2023-05-03T17:02:09;9.87;;;7.50;;
11230;SDS011;5672;51.060;3.734;2023-05-03T17:04:35;12.50;;;8.10;;
11230;SDS011;5672;51.060;3.734;2023-05-03T17:07:01;14.87;;;7.67;;
11230;SDS011;5672;51.060;3.734;2023-05-03T17:09:27;8.77;;;7.33;;
11230;SDS011;5672;51.060;3.734;2023-05-03T17:11:53;9.87;;;8.00;;
11230;SDS011;5672;51.060;3.734;2023-05-03T17:14:19;8.53;;;7.33;;
11230;SDS011;5672;51.060;3.734;2023-05-03T17:16:45;9.17;;;6.70;;
11230;SDS011;5672;51.060;3.734;2023-05-03T17:19:13;10.37;;;7.70;;
11230;SDS011;5672;51.060;3.734;2023-05-03T17:21:39;11.93;;;7.97;;
11230;SDS011;5672;51.060;3.734;2023-05-03T17:24:05;11.90;;;7.77;;
11230;SDS011;5672;51.060;3.734;2023-05-03T17:26:31;10.73;;;8.23;;
11230;SDS011;5672;51.060;3.734;2023-05-03T17:28:57;8.63;;;7.53;;
11230;SDS011;5672;51.060;3.734;2023-05-03T17:31:23;8.43;;;7.47;;
11230;SDS011;5672;51.060;3.734;2023-05-03T17:33:49;11.43;;;7.80;;
11230;SDS011;5672;51.060;3.734;2023-05-03T17:36:15;13.63;;;7.40;;
11230;SDS011;5672;51.060;3.734;2023-05-03T17:38:41;8.30;;;6.93;;
11230;SDS011;5672;51.060;3.734;2023-05-03T17:41:08;11.50;;;7.37;;
11230;SDS011;5672;51.060;3.734;2023-05-03T17:43:35;9.40;;;7.37;;
11230;SDS011;5672;51.060;3.734;2023-05-03T17:46:08;8.23;;;6.90;;
11230;SDS011;5672;51.060;3.734;2023-05-03T17:48:41;7.50;;;6.80;;
11230;SDS011;5672;51.060;3.734;2023-05-03T17:51:13;10.97;;;7.30;;
11230;SDS011;5672;51.060;3.734;2023-05-03T17:53:40;12.57;;;7.37;;
11230;SDS011;5672;51.060;3.734;2023-05-03T17:56:13;11.40;;;7.30;;
11230;SDS011;5672;51.060;3.734;2023-05-03T17:58:39;9.87;;;7.10;;
11230;SDS011;5672;51.060;3.734;2023-05-03T18:01:05;10.57;;;7.40;;
11230;SDS011;5672;51.060;3.734;2023-05-03T18:03:33;8.43;;;7.10;;
11230;SDS011;5672;51.060;3.734;2023-05-03T18:06:01;9.90;;;6.53;;
11230;SDS011;5672;51.060;3.734;2023-05-03T18:08:27;16.67;;;7.20;;
11230;SDS011;5672;51.060;3.734;2023-05-03T18:10:53;10.13;;;6.93;;
11230;SDS011;5672;51.060;3.734;2023-05-03T18:13:19;8.97;;;6.77;;
11230;SDS011;5672;51.060;3.734;2023-05-03T18:15:45;8.43;;;6.53;;
11230;SDS011;5672;51.060;3.734;2023-05-03T18:18:11;7.33;;;6.60;;
11230;SDS011;5672;51.060;3.734;2023-05-03T18:20:37;9.13;;;7.03;;
11230;SDS011;5672;51.060;3.734;2023-05-03T18:23:03;11.53;;;6.93;;
11230;SDS011;5672;51.060;3.734;2023-05-03T18:25:29;8.50;;;7.17;;
11230;SDS011;5672;51.060;3.734;2023-05-03T18:27:55;8.03;;;6.47;;
11230;SDS011;5672;51.060;3.734;2023-05-03T18:30:22;8.17;;;6.80;;
11230;SDS011;5672;51.060;3.734;2023-05-03T18:32:50;9.10;;;6.60;;
11230;SDS011;5672;51.060;3.734;2023-05-03T18:35:16;9.70;;;7.07;;
11230;SDS011;5672;51.060;3.734;2023-05-03T18:37:42;7.60;;;6.80;;
11230;SDS011;5672;51.060;3.734;2023-05-03T18:40:08;7.47;;;6.53;;
11230;SDS011;5672;51.060;3.734;2023-05-03T18:42:34;9.70;;;6.77;;
11230;SDS011;5672;51.060;3.734;2023-05-03T18:45:00;7.07;;;6.37;;
11230;SDS011;5672;51.060;3.734;2023-05-03T18:47:26;7.07;;;6.53;;
11230;SDS011;5672;51.060;3.734;2023-05-03T18:49:53;8.77;;;6.50;;
11230;SDS011;5672;51.060;3.734;2023-05-03T18:52:19;9.23;;;6.70;;
11230;SDS011;5672;51.060;3.734;2023-05-03T18:54:45;10.90;;;6.47;;
11230;SDS011;5672;51.060;3.734;2023-05-03T18:57:11;7.90;;;6.73;;
11230;SDS011;5672;51.060;3.734;2023-05-03T18:59:37;8.80;;;6.77;;
11230;SDS011;5672;51.060;3.734;2023-05-03T19:02:03;8.20;;;6.73;;
11230;SDS011;5672;51.060;3.734;2023-05-03T19:04:31;9.00;;;6.80;;
11230;SDS011;5672;51.060;3.734;2023-05-03T19:06:57;9.57;;;7.67;;
11230;SDS011;5672;51.060;3.734;2023-05-03T19:09:23;8.93;;;7.20;;
11230;SDS011;5672;51.060;3.734;2023-05-03T19:11:49;8.43;;;7.03;;
11230;SDS011;5672;51.060;3.734;2023-05-03T19:14:15;9.53;;;6.60;;
11230;SDS011;5672;51.060;3.734;2023-05-03T19:16:42;8.83;;;6.87;;
11230;SDS011;5672;51.060;3.734;2023-05-03T19:19:08;10.73;;;7.43;;
11230;SDS011;5672;51.060;3.734;2023-05-03T19:21:35;10.50;;;6.90;;
11230;SDS011;5672;51.060;3.734;2023-05-03T19:24:06;11.17;;;7.67;;
11230;SDS011;5672;51.060;3.734;2023-05-03T19:26:35;9.33;;;6.90;;
11230;SDS011;5672;51.060;3.734;2023-05-03T19:29:01;9.53;;;7.73;;
11230;SDS011;5672;51.060;3.734;2023-05-03T19:31:27;9.13;;;7.00;;
11230;SDS011;5672;51.060;3.734;2023-05-03T19:33:53;10.53;;;7.03;;
11230;SDS011;5672;51.060;3.734;2023-05-03T19:36:19;10.90;;;6.60;;
11230;SDS011;5672;51.060;3.734;2023-05-03T19:38:45;9.27;;;6.37;;
11230;SDS011;5672;51.060;3.734;2023-05-03T19:41:11;10.53;;;7.50;;
11230;SDS011;5672;51.060;3.734;2023-05-03T19:43:37;12.00;;;7.93;;
11230;SDS011;5672;51.060;3.734;2023-05-03T19:46:04;12.53;;;7.47;;
11230;SDS011;5672;51.060;3.734;2023-05-03T19:48:30;10.17;;;6.90;;
11230;SDS011;5672;51.060;3.734;2023-05-03T19:50:57;11.30;;;7.17;;
11230;SDS011;5672;51.060;3.734;2023-05-03T19:53:23;9.37;;;7.90;;
11230;SDS011;5672;51.060;3.734;2023-05-03T19:55:59;11.23;;;7.37;;
11230;SDS011;5672;51.060;3.734;2023-05-03T19:58:26;8.53;;;7.57;;
11230;SDS011;5672;51.060;3.734;2023-05-03T20:00:52;10.27;;;8.07;;
11230;SDS011;5672;51.060;3.734;2023-05-03T20:03:20;15.17;;;8.20;;
11230;SDS011;5672;51.060;3.734;2023-05-03T20:05:46;9.30;;;7.33;;
11230;SDS011;5672;51.060;3.734;2023-05-03T20:08:12;11.87;;;8.00;;
11230;SDS011;5672;51.060;3.734;2023-05-03T20:10:39;10.27;;;7.27;;
11230;SDS011;5672;51.060;3.734;2023-05-03T20:13:05;9.87;;;7.37;;
11230;SDS011;5672;51.060;3.734;2023-05-03T20:15:31;11.73;;;7.90;;
11230;SDS011;5672;51.060;3.734;2023-05-03T20:17:57;11.67;;;8.07;;
11230;SDS011;5672;51.060;3.734;2023-05-03T20:20:24;11.37;;;7.40;;
11230;SDS011;5672;51.060;3.734;2023-05-03T20:22:50;13.53;;;7.60;;
11230;SDS011;5672;51.060;3.734;2023-05-03T20:25:16;16.10;;;7.87;;
11230;SDS011;5672;51.060;3.734;2023-05-03T20:27:46;8.10;;;7.17;;
11230;SDS011;5672;51.060;3.734;2023-05-03T20:30:12;12.60;;;7.43;;
11230;SDS011;5672;51.060;3.734;2023-05-03T20:32:40;9.53;;;7.10;;
11230;SDS011;5672;51.060;3.734;2023-05-03T20:35:09;13.27;;;7.53;;
11230;SDS011;5672;51.060;3.734;2023-05-03T20:37:36;15.43;;;7.93;;
11230;SDS011;5672;51.060;3.734;2023-05-03T20:40:02;10.10;;;7.40;;
11230;SDS011;5672;51.060;3.734;2023-05-03T20:42:29;12.23;;;7.50;;
11230;SDS011;5672;51.060;3.734;2023-05-03T20:44:55;10.80;;;7.37;;
11230;SDS011;5672;51.060;3.734;2023-05-03T20:47:21;8.07;;;6.93;;
11230;SDS011;5672;51.060;3.734;2023-05-03T20:49:47;10.10;;;7.20;;
11230;SDS011;5672;51.060;3.734;2023-05-03T20:52:13;8.20;;;7.03;;
11230;SDS011;5672;51.060;3.734;2023-05-03T20:54:40;12.80;;;7.27;;
11230;SDS011;5672;51.060;3.734;2023-05-03T20:57:06;9.53;;;6.90;;
11230;SDS011;5672;51.060;3.734;2023-05-03T20:59:33;8.37;;;6.90;;
11230;SDS011;5672;51.060;3.734;2023-05-03T21:01:59;13.03;;;6.87;;
11230;SDS011;5672;51.060;3.734;2023-05-03T21:04:25;10.10;;;6.37;;
11230;SDS011;5672;51.060;3.734;2023-05-03T21:06:52;7.10;;;6.33;;
11230;SDS011;5672;51.060;3.734;2023-05-03T21:09:18;7.77;;;6.20;;
11230;SDS011;5672;51.060;3.734;2023-05-03T21:11:44;7.87;;;6.67;;
11230;SDS011;5672;51.060;3.734;2023-05-03T21:14:10;10.30;;;6.73;;
11230;SDS011;5672;51.060;3.734;2023-05-03T21:16:37;7.53;;;6.83;;
11230;SDS011;5672;51.060;3.734;2023-05-03T21:19:03;10.83;;;6.90;;
11230;SDS011;5672;51.060;3.734;2023-05-03T21:21:29;7.90;;;6.87;;
11230;SDS011;5672;51.060;3.734;2023-05-03T21:23:55;13.00;;;7.40;;
11230;SDS011;5672;51.060;3.734;2023-05-03T21:26:21;11.33;;;7.40;;
11230;SDS011;5672;51.060;3.734;2023-05-03T21:28:48;8.43;;;7.37;;
11230;SDS011;5672;51.060;3.734;2023-05-03T21:31:14;10.97;;;7.77;;
11230;SDS011;5672;51.060;3.734;2023-05-03T21:33:40;7.80;;;7.00;;
11230;SDS011;5672;51.060;3.734;2023-05-03T21:36:07;10.07;;;7.30;;
11230;SDS011;5672;51.060;3.734;2023-05-03T21:38:33;9.60;;;7.03;;
11230;SDS011;5672;51.060;3.734;2023-05-03T21:41:00;9.67;;;7.70;;
11230;SDS011;5672;51.060;3.734;2023-05-03T21:43:28;8.07;;;6.87;;
11230;SDS011;5672;51.060;3.734;2023-05-03T21:45:54;10.27;;;7.60;;
11230;SDS011;5672;51.060;3.734;2023-05-03T21:48:20;10.17;;;7.60;;
11230;SDS011;5672;51.060;3.734;2023-05-03T21:50:47;8.13;;;7.30;;
11230;SDS011;5672;51.060;3.734;2023-05-03T21:53:13;11.23;;;7.37;;
11230;SDS011;5672;51.060;3.734;2023-05-03T21:55:39;8.70;;;7.80;;
11230;SDS011;5672;51.060;3.734;2023-05-03T21:58:05;10.07;;;7.83;;
11230;SDS011;5672;51.060;3.734;2023-05-03T22:00:31;10.47;;;7.03;;
11230;SDS011;5672;51.060;3.734;2023-05-03T22:02:59;9.20;;;6.87;;
11230;SDS011;5672;51.060;3.734;2023-05-03T22:05:26;7.70;;;6.80;;
11230;SDS011;5672;51.060;3.734;2023-05-03T22:07:52;9.30;;;7.00;;
11230;SDS011;5672;51.060;3.734;2023-05-03T22:10:18;10.33;;;7.20;;
11230;SDS011;5672;51.060;3.734;2023-05-03T22:12:44;9.43;;;6.10;;
11230;SDS011;5672;51.060;3.734;2023-05-03T22:15:10;8.10;;;6.83;;
11230;SDS011;5672;51.060;3.734;2023-05-03T22:17:37;10.83;;;7.23;;
11230;SDS011;5672;51.060;3.734;2023-05-03T22:20:03;10.93;;;7.50;;
11230;SDS011;5672;51.060;3.734;2023-05-03T22:22:29;10.77;;;6.87;;
11230;SDS011;5672;51.060;3.734;2023-05-03T22:24:58;11.40;;;7.67;;
11230;SDS011;5672;51.060;3.734;2023-05-03T22:27:24;10.00;;;6.80;;
11230;SDS011;5672;51.060;3.734;2023-05-03T22:29:50;8.63;;;6.93;;
11230;SDS011;5672;51.060;3.734;2023-05-03T22:32:16;8.07;;;6.57;;
11230;SDS011;5672;51.060;3.734;2023-05-03T22:34:42;8.03;;;6.60;;
11230;SDS011;5672;51.060;3.734;2023-05-03T22:37:09;8.17;;;6.70;;
11230;SDS011;5672;51.060;3.734;2023-05-03T22:39:35;7.63;;;6.83;;
11230;SDS011;5672;51.060;3.734;2023-05-03T22:42:02;7.93;;;6.53;;
11230;SDS011;5672;51.060;3.734;2023-05-03T22:44:28;11.07;;;6.70;;
11230;SDS011;5672;51.060;3.734;2023-05-03T22:46:54;10.00;;;6.73;;
11230;SDS011;5672;51.060;3.734;2023-05-03T22:49:20;10.70;;;6.90;;
11230;SDS011;5672;51.060;3.734;2023-05-03T22:51:46;7.90;;;6.40;;
11230;SDS011;5672;51.060;3.734;2023-05-03T22:54:12;8.60;;;6.87;;
11230;SDS011;5672;51.060;3.734;2023-05-03T22:56:38;9.43;;;6.50;;
11230;SDS011;5672;51.060;3.734;2023-05-03T22:59:04;10.60;;;6.80;;
11230;SDS011;5672;51.060;3.734;2023-05-03T23:01:30;6.73;;;6.00;;
11230;SDS011;5672;51.060;3.734;2023-05-03T23:03:56;11.20;;;6.43;;
11230;SDS011;5672;51.060;3.734;2023-05-03T23:06:23;9.33;;;5.67;;
11230;SDS011;5672;51.060;3.734;2023-05-03T23:08:49;9.13;;;6.00;;
11230;SDS011;5672;51.060;3.734;2023-05-03T23:11:15;6.57;;;5.67;;
11230;SDS011;5672;51.060;3.734;2023-05-03T23:13:41;6.17;;;5.43;;
11230;SDS011;5672;51.060;3.734;2023-05-03T23:16:07;7.73;;;5.77;;
11230;SDS011;5672;51.060;3.734;2023-05-03T23:18:34;8.37;;;5.80;;
11230;SDS011;5672;51.060;3.734;2023-05-03T23:21:00;12.10;;;6.07;;
11230;SDS011;5672;51.060;3.734;2023-05-03T23:23:26;8.67;;;5.90;;
11230;SDS011;5672;51.060;3.734;2023-05-03T23:25:52;8.67;;;5.70;;
11230;SDS011;5672;51.060;3.734;2023-05-03T23:28:18;7.73;;;6.07;;
11230;SDS011;5672;51.060;3.734;2023-05-03T23:30:45;7.00;;;6.20;;
11230;SDS011;5672;51.060;3.734;2023-05-03T23:33:11;10.70;;;7.10;;
11230;SDS011;5672;51.060;3.734;2023-05-03T23:35:37;6.60;;;5.53;;
11230;SDS011;5672;51.060;3.734;2023-05-03T23:38:03;8.00;;;6.37;;
11230;SDS011;5672;51.060;3.734;2023-05-03T23:40:29;9.93;;;5.90;;
11230;SDS011;5672;51.060;3.734;2023-05-03T23:42:55;8.63;;;6.20;;
11230;SDS011;5672;51.060;3.734;2023-05-03T23:45:21;8.93;;;6.10;;
11230;SDS011;5672;51.060;3.734;2023-05-03T23:47:47;7.53;;;6.20;;
11230;SDS011;5672;51.060;3.734;2023-05-03T23:50:13;12.03;;;6.30;;
11230;SDS011;5672;51.060;3.734;2023-05-03T23:52:40;9.30;;;5.67;;
11230;SDS011;5672;51.060;3.734;2023-05-03T23:55:06;11.73;;;6.07;;
11230;SDS011;5672;51.060;3.734;2023-05-03T23:57:32;9.30;;;6.67;;
11230;SDS011;5672;51.060;3.734;2023-05-03T23:59:59;10.50;;;5.83;;
